Latest Weather Observations for South Johnstone

IDQ60801

Issued at 1:42 pm EST Tuesday 15 October 2019 (issued every 10 minutes, with the page automatically refreshed every 10 minutes)

About weather observations | Map of weather stations | Latest weather observations for QLD | Other Formats
Station Details ID: 032037 Name: SOUTH JOHNSTONE EXP STN Lat: -17.61 Lon: 146.00 Height: 18.3 m
Data from the previous 72 hours. | See also: Recent months at South Johnstone
Date/Time
EST
Temp
°C
App
Temp
°C
Dew
Point
°C
Rel
Hum
%
Delta-T
°C
Wind Press
QNH
hPa
Press
MSL
hPa
Rain since
9am
mm
Dir  Spd
km/h
Gust
km/h
Spd
kts
Gust
kts
15/01:30pm 28.3 27.8 16.8 49 7.2 NE 15 22 8 12 1013.6 - 0.0
15/01:00pm 28.8 28.3 17.8 51 7.0 NE 17 26 9 14 1013.8 - 0.0
15/12:30pm 28.8 29.7 18.3 53 6.7 ENE 11 19 6 10 1014.2 - 0.0
15/12:00pm 28.8 29.3 18.3 53 6.7 NE 13 20 7 11 1014.7 1014.6 0.0
15/11:30am 29.5 30.6 17.1 47 7.8 NNE 7 13 4 7 1015.1 - 0.0
15/11:00am 28.3 28.9 15.4 45 7.9 NNE 6 15 3 8 1015.7 - 0.0
15/10:30am 27.7 28.6 15.2 46 7.6 NW 4 9 2 5 1016.2 - 0.0
15/10:00am 27.2 28.6 17.9 56 5.9 NNE 7 15 4 8 1016.7 - 0.0
15/09:30am 26.4 28.4 17.8 59 5.4 N 4 11 2 6 1017.0 - 0.0
15/09:00am 25.7 28.6 18.3 63 4.7 CALM 0 2 0 1 1017.2 1017.1 0.0
15/08:30am 24.2 27.0 18.8 72 3.4 WNW 2 7 1 4 1017.2 - 0.0
15/08:00am 22.0 25.1 19.5 86 1.6 W 2 7 1 4 1017.2 - 0.0
15/07:30am 19.7 21.4 18.4 92 0.8 WNW 7 11 4 6 1017.1 - 0.0
15/07:00am 17.7 19.0 17.0 96 0.4 NW 6 7 3 4 1016.9 - 0.0
15/06:30am 16.6 17.5 16.1 97 0.3 WNW 6 11 3 6 1016.5 - 0.0
15/06:00am 16.5 17.2 16.0 97 0.3 WNW 7 11 4 6 1016.2 1016.1 0.0
15/05:30am 16.5 18.5 16.0 97 0.3 CALM 0 6 0 3 1016.1 - 0.0
15/05:00am 16.9 18.7 16.4 97 0.3 W 2 7 1 4 1015.9 - 0.0
15/04:30am 17.1 18.6 16.6 97 0.3 W 4 7 2 4 1015.6 - 0.0
15/04:00am 17.2 19.1 16.7 97 0.3 W 2 7 1 4 1015.7 - 0.0
15/03:30am 17.5 18.8 17.0 97 0.3 WNW 6 9 3 5 1015.7 - 0.0
15/03:00am 17.3 18.3 16.8 97 0.3 WSW 7 11 4 6 1015.8 1015.7 0.0
15/02:30am 17.5 18.5 16.8 96 0.4 W 7 11 4 6 1015.9 - 0.0
15/02:00am 17.7 19.3 17.0 96 0.4 W 4 9 2 5 1016.1 - 0.0
15/01:30am 17.9 19.2 17.2 96 0.4 WNW 6 9 3 5 1016.4 - 0.0
15/01:00am 18.2 19.5 17.5 96 0.4 W 7 9 4 5 1016.6 - 0.0
15/12:30am 18.3 19.8 17.6 96 0.4 WSW 6 9 3 5 1016.8 - 0.0
15/12:00am 19.0 20.7 18.0 94 0.6 WNW 6 9 3 5 1017.1 1017.0 0.0
 
Date/Time
EST
Temp
°C
App
Temp
°C
Dew
Point
°C
Rel
Hum
%
Delta-T
°C
Wind Press
QNH
hPa
Press
MSL
hPa
Rain since
9am
mm
Dir  Spd
km/h
Gust
km/h
Spd
kts
Gust
kts
14/11:30pm 19.1 20.8 18.0 93 0.7 W 6 11 3 6 1017.3 - 0.0
14/11:00pm 19.4 20.9 18.1 92 0.8 WSW 7 13 4 7 1017.3 - 0.0
14/10:30pm 19.8 22.2 18.7 93 0.7 WNW 4 9 2 5 1017.3 - 0.0
14/10:00pm 19.8 21.5 18.5 92 0.8 W 7 13 4 7 1017.2 - 0.0
14/09:30pm 20.3 21.8 18.9 92 0.9 W 9 13 5 7 1017.0 - 0.0
14/09:00pm 20.9 22.9 19.2 90 1.1 W 7 13 4 7 1016.9 1016.8 0.0
14/08:30pm 21.5 25.1 19.8 90 1.1 CALM 0 6 0 3 1016.7 - 0.0
14/08:00pm 21.9 25.3 19.4 86 1.6 CALM 0 0 0 0 1016.6 - 0.0
14/07:30pm 22.4 25.5 18.7 79 2.3 CALM 0 4 0 2 1016.2 - 0.0
14/07:00pm 22.8 26.0 18.8 78 2.5 CALM 0 0 0 0 1015.9 - 0.0
14/06:30pm 23.9 26.3 18.9 73 3.2 ESE 4 7 2 4 1015.5 - 0.0
14/06:00pm 24.8 26.3 18.8 69 3.8 ENE 9 15 5 8 1015.1 1015.0 0.0
14/05:30pm 25.6 26.8 18.2 63 4.7 NE 9 15 5 8 1014.9 - 0.0
14/05:00pm 26.3 27.2 18.4 61 5.0 NE 11 15 6 8 1014.7 - 0.0
14/04:30pm 27.0 28.1 18.0 58 5.7 ENE 9 17 5 9 1014.7 - 0.0
14/04:00pm 27.8 28.5 18.0 55 6.2 ENE 11 17 6 9 1014.8 - 0.0
14/03:30pm 28.1 28.7 17.8 53 6.5 ENE 11 17 6 9 1014.9 - 0.0
14/03:00pm 28.5 28.5 18.0 53 6.7 NE 15 22 8 12 1014.9 1014.8 0.0
14/02:30pm 28.9 29.3 17.3 49 7.3 NE 11 22 6 12 1015.1 - 0.0
14/02:00pm 28.8 29.1 16.0 45 7.9 NNE 9 17 5 9 1015.3 - 0.0
14/01:30pm 28.7 29.7 17.8 51 6.9 E 9 19 5 10 1015.7 - 0.0
14/01:00pm 28.3 28.2 17.0 50 7.1 ENE 13 22 7 12 1016.2 - 0.0
14/12:30pm 28.4 28.3 17.8 52 6.7 ENE 15 22 8 12 1016.7 - 0.0
14/12:00pm 29.0 29.7 18.0 51 7.0 NNE 11 19 6 10 1017.2 1017.1 0.0
14/11:30am 28.4 29.0 17.6 52 6.8 NE 11 22 6 12 1017.5 - 0.0
14/11:00am 28.9 31.0 19.3 56 6.2 NNE 7 15 4 8 1017.6 - 0.0
14/10:30am 28.4 30.0 17.8 52 6.7 E 6 17 3 9 1017.6 - 0.0
14/10:00am 27.7 29.9 19.5 61 5.3 NE 7 9 4 5 1017.8 - 0.0
14/09:30am 27.2 30.0 19.6 63 4.9 NE 4 9 2 5 1018.0 - 0.0
14/09:00am 26.9 29.7 20.5 68 4.2 SE 6 11 3 6 1018.0 1017.9 0.0
14/08:30am 24.4 27.1 20.2 77 2.7 SW 6 11 3 6 1018.0 - 0.0
14/08:00am 22.6 25.7 20.3 87 1.5 W 4 7 2 4 1018.2 - 0.0
14/07:30am 20.9 23.5 19.3 90 1.0 W 4 7 2 4 1018.0 - 0.0
14/07:00am 19.2 21.9 18.6 96 0.4 SW 2 9 1 5 1017.4 - 0.0
14/06:30am 18.4 21.2 17.9 97 0.3 CALM 0 0 0 0 1017.2 - 0.0
14/06:00am 18.1 20.4 17.6 97 0.3 W 2 6 1 3 1016.6 1016.5 0.0
14/05:30am 18.3 19.6 17.6 96 0.4 W 7 9 4 5 1016.2 - 0.0
14/05:00am 18.3 20.3 17.8 97 0.3 W 4 9 2 5 1015.7 - 0.0
14/04:30am 18.6 20.6 17.9 96 0.4 W 4 9 2 5 1015.5 - 0.0
14/04:00am 18.6 20.1 18.1 97 0.3 W 7 11 4 6 1015.5 - 0.0
14/03:30am 18.8 21.4 18.3 97 0.3 W 2 7 1 4 1015.4 - 0.0
14/03:00am 18.6 20.0 17.9 96 0.4 SW 7 11 4 6 1015.6 1015.5 0.0
14/02:30am 18.8 20.0 18.2 96 0.4 W 9 13 5 7 1015.8 - 0.0
14/02:00am 18.9 20.7 18.3 96 0.4 W 6 11 3 6 1016.0 - 0.0
14/01:30am 19.3 21.1 18.7 96 0.4 W 7 11 4 6 1016.0 - 0.0
14/01:00am 19.4 21.4 18.8 96 0.4 WNW 6 13 3 7 1016.3 - 0.0
14/12:30am 19.5 21.9 18.7 95 0.5 WNW 4 7 2 4 1016.3 - 0.0
14/12:00am 19.8 21.9 19.0 95 0.5 W 6 13 3 7 1016.5 1016.4 0.0
 
Date/Time
EST
Temp
°C
App
Temp
°C
Dew
Point
°C
Rel
Hum
%
Delta-T
°C
Wind Press
QNH
hPa
Press
MSL
hPa
Rain since
9am
mm
Dir  Spd
km/h
Gust
km/h
Spd
kts
Gust
kts
13/11:30pm 20.0 22.1 19.0 94 0.6 WNW 6 11 3 6 1016.5 - 0.0
13/11:00pm 20.6 22.9 19.5 93 0.7 WNW 6 9 3 5 1016.7 - 0.0
13/10:30pm 20.9 23.4 19.8 93 0.7 W 6 11 3 6 1016.7 - 0.0
13/10:00pm 21.1 23.4 19.8 92 0.8 W 7 11 4 6 1016.6 - 0.0
13/09:30pm 21.4 24.1 20.3 93 0.7 W 6 9 3 5 1016.4 - 0.0
13/09:00pm 21.9 24.4 20.3 91 1.0 W 7 11 4 6 1016.1 1016.0 0.0
13/08:30pm 21.8 23.5 20.2 91 1.0 WSW 11 13 6 7 1015.8 - 0.0
13/08:00pm 22.5 26.6 20.7 89 1.2 CALM 0 0 0 0 1015.3 - 0.0
13/07:30pm 22.5 26.4 20.3 87 1.4 CALM 0 0 0 0 1014.9 - 0.0
13/07:00pm 22.9 26.8 20.4 86 1.6 CALM 0 0 0 0 1014.7 - 0.0
13/06:30pm 24.3 28.3 20.5 79 2.5 CALM 0 6 0 3 1014.4 - 0.0
13/06:00pm 25.0 27.1 20.1 74 3.2 ENE 9 11 5 6 1014.0 1013.9 0.0
13/05:30pm 25.8 27.8 19.9 70 3.8 NE 9 15 5 8 1013.7 - 0.0
13/05:00pm 26.6 27.9 19.3 64 4.7 NE 11 15 6 8 1013.2 - 0.0
13/04:30pm 27.2 28.1 18.4 58 5.6 ENE 11 17 6 9 1013.1 - 0.0
13/04:00pm 27.4 28.0 18.7 59 5.6 NE 13 19 7 10 1013.1 - 0.0
13/03:30pm 28.4 29.1 18.9 56 6.1 NE 13 20 7 11 1013.1 - 0.0
13/03:00pm 29.0 29.3 18.8 54 6.6 ENE 15 22 8 12 1013.3 1013.2 0.0
13/02:30pm 29.8 29.7 16.9 45 8.1 E 13 22 7 12 1013.6 - 0.0
13/02:00pm 29.7 30.0 18.0 49 7.5 E 13 22 7 12 1013.9 - 0.0
13/01:30pm 29.2 29.4 18.5 52 6.9 NE 15 24 8 13 1014.1 - 0.0
13/01:00pm 29.6 30.3 18.0 49 7.4 NE 11 20 6 11 1014.4 - 0.0
13/12:30pm 29.5 30.2 17.9 49 7.4 ENE 11 22 6 12 1014.6 - 0.0
13/12:00pm 29.5 30.1 18.6 52 7.0 ENE 13 20 7 11 1015.2 1015.1 0.0
13/11:30am 29.6 31.2 18.2 50 7.3 E 7 15 4 8 1015.6 - 0.0
13/11:00am 29.0 30.5 18.0 51 7.0 ESE 7 11 4 6 1015.9 - 0.0
13/10:30am 28.8 30.0 17.4 50 7.2 ENE 7 11 4 6 1016.3 - 0.0
13/10:00am 28.1 29.8 18.6 56 6.1 ENE 7 13 4 7 1016.5 - 0.0
13/09:30am 27.3 29.9 19.2 61 5.2 ENE 4 7 2 4 1016.8 - 0.0
13/09:00am 26.3 30.0 20.7 71 3.7 S 2 7 1 4 1016.9 1016.8 0.0
13/08:30am 24.5 28.2 20.7 79 2.5 SSW 2 6 1 3 1017.1 - 0.0
13/08:00am 22.2 24.9 20.2 88 1.3 SW 6 7 3 4 1016.9 - 0.0
13/07:30am 20.4 23.2 19.6 95 0.5 W 4 9 2 5 1016.6 - 0.0
13/07:00am 18.9 21.6 18.6 98 0.2 S 2 7 1 4 1016.2 - 0.0
13/06:30am 18.2 20.5 17.7 97 0.3 SSE 2 6 1 3 1015.9 - 0.0
13/06:00am 18.3 21.0 17.8 97 0.3 CALM 0 0 0 0 1015.1 1015.0 0.0
13/05:30am 18.4 21.2 17.9 97 0.3 CALM 0 0 0 0 1014.4 - 0.0
13/05:00am 18.1 20.7 17.6 97 0.3 CALM 0 6 0 3 1013.9 - 0.0
13/04:30am 18.3 19.9 17.8 97 0.3 NW 6 7 3 4 1013.4 - 0.0
13/04:00am 18.5 20.2 18.0 97 0.3 NW 6 9 3 5 1013.2 - 0.0
13/03:30am 18.7 20.8 18.2 97 0.3 WNW 4 7 2 4 1013.2 - 0.0
13/03:00am 18.7 20.2 18.0 96 0.4 W 7 13 4 7 1013.0 1012.9 0.0
13/02:30am 18.9 20.7 18.3 96 0.4 W 6 9 3 5 1013.1 - 0.0
13/02:00am 19.2 21.1 18.6 96 0.4 WSW 6 9 3 5 1013.2 - 0.0
13/01:30am 19.2 21.1 18.6 96 0.4 W 6 9 3 5 1012.9 - 0.0
13/01:00am 19.8 21.8 19.2 96 0.4 W 7 15 4 8 1012.8 - 0.0
13/12:30am 19.6 21.4 18.8 95 0.5 WSW 7 11 4 6 1012.8 - 0.0
13/12:00am 20.0 22.5 19.0 94 0.6 WSW 4 13 2 7 1012.8 1012.7 0.0
 
Date/Time
EST
Temp
°C
App
Temp
°C
Dew
Point
°C
Rel
Hum
%
Delta-T
°C
Wind Press
QNH
hPa
Press
MSL
hPa
Rain since
9am
mm
Dir  Spd
km/h
Gust
km/h
Spd
kts
Gust
kts
12/11:30pm 20.5 24.1 19.7 95 0.5 CALM 0 6 0 3 1013.0 - 0.0
12/11:00pm 21.1 25.0 20.3 95 0.5 CALM 0 0 0 0 1013.2 - 0.0
12/10:30pm 21.3 25.2 20.4 95 0.6 CALM 0 0 0 0 1013.0 - 0.0
12/10:00pm 21.7 25.7 20.6 93 0.7 CALM 0 0 0 0 1012.9 - 0.0
12/09:30pm 21.9 26.0 20.7 93 0.8 CALM 0 0 0 0 1012.8 - 0.0
12/09:00pm 22.6 26.9 21.1 91 1.0 CALM 0 0 0 0 1012.6 1012.5 0.0
12/08:30pm 22.8 27.0 21.0 89 1.2 CALM 0 0 0 0 1012.3 - 0.0
12/08:00pm 23.1 27.4 21.1 88 1.3 CALM 0 0 0 0 1012.0 - 0.0
12/07:30pm 23.2 27.4 20.9 87 1.5 CALM 0 0 0 0 1011.4 - 0.0
12/07:00pm 23.7 28.0 21.1 85 1.7 CALM 0 0 0 0 1011.1 - 0.0
12/06:30pm 24.6 28.9 21.1 81 2.3 CALM 0 0 0 0 1010.7 - 0.0
12/06:00pm 25.5 28.3 20.8 75 3.1 ENE 7 9 4 5 1010.1 1010.0 0.0
12/05:30pm 26.6 28.8 19.5 65 4.6 ENE 7 11 4 6 1009.8 - 0.0
12/05:00pm 26.9 28.6 19.3 63 4.9 NE 9 15 5 8 1009.4 - 0.0
12/04:30pm 27.5 28.4 18.4 57 5.8 ENE 11 17 6 9 1009.0 - 0.0
12/04:00pm 27.5 28.3 19.0 59 5.5 NE 13 19 7 10 1008.7 - 0.0
12/03:30pm 28.1 29.3 19.1 58 5.8 ENE 11 19 6 10 1008.8 - 0.0
12/03:00pm 28.4 29.2 19.1 57 6.0 ENE 13 22 7 12 1009.0 1008.9 0.0
12/02:30pm 28.8 29.6 19.8 58 5.9 NE 15 20 8 11 1009.2 - 0.0
12/02:00pm 29.0 29.8 19.8 57 6.0 ENE 15 24 8 13 1009.3 - 0.0

Other formats

Comma delimited format used in spreadsheet applications
http://www.bom.gov.au/fwo/IDQ60801/IDQ60801.95292.axf

JavaScript Object Notation format (JSON) in row-major order
http://www.bom.gov.au/fwo/IDQ60801/IDQ60801.95292.json

Data quality

Most of these data are generated automatically and are frequently updated. Quality checks on data are not normally performed. It is possible for incorrect values to appear. Refer to information at About Latest Weather Observations and please check the disclaimer before using these data.